LFET weather

Til Châtel Airfield
Til Châtel, Burgundy, France

Public forecast

Using degrees Celsius for public forecast. Weather courtesy of forecast.io.

METAR (pilot weather report)

Closest report is Dijon-Bourgogne Airport, 17.4 nm (32.3 km) SSW. Retrieved 2019/07/16 07:30 UTC (28 minutes ago):

LFSD 160730Z AUTO 02007KT 350V060 CAVOK 20/11 Q1018

TAF (pilot weather forecast)

Forecast is more than 12 hours old.

Closest forecast is Dijon-Bourgogne Airport, 17.4 nm (32.3 km) SSW. Retrieved 2015/06/01 00:11 UTC (4 years ago):

TAF LFSD 010600Z 0100/0124 CNL